sensor_id;sensor_type;location;lat;lon;timestamp;temperature;humidity
4107;DHT22;21906;50.812;7.132;2022-11-24T00:01:18;8.40;78.80
4107;DHT22;21906;50.812;7.132;2022-11-24T00:03:46;8.40;78.70
4107;DHT22;21906;50.812;7.132;2022-11-24T00:06:16;8.40;78.60
4107;DHT22;21906;50.812;7.132;2022-11-24T00:08:44;8.40;78.40
4107;DHT22;21906;50.812;7.132;2022-11-24T00:11:12;8.40;78.40
4107;DHT22;21906;50.812;7.132;2022-11-24T00:13:38;8.40;78.40
4107;DHT22;21906;50.812;7.132;2022-11-24T00:16:13;8.40;78.20
4107;DHT22;21906;50.812;7.132;2022-11-24T00:18:39;8.40;78.30
4107;DHT22;21906;50.812;7.132;2022-11-24T00:21:06;8.40;78.10
4107;DHT22;21906;50.812;7.132;2022-11-24T00:23:32;8.40;78.00
4107;DHT22;21906;50.812;7.132;2022-11-24T00:26:15;8.40;78.00
4107;DHT22;21906;50.812;7.132;2022-11-24T00:28:41;8.40;77.90
4107;DHT22;21906;50.812;7.132;2022-11-24T00:31:38;8.40;77.80
4107;DHT22;21906;50.812;7.132;2022-11-24T00:34:13;8.40;77.70
4107;DHT22;21906;50.812;7.132;2022-11-24T00:36:40;8.40;77.60
4107;DHT22;21906;50.812;7.132;2022-11-24T00:39:11;8.30;77.50
4107;DHT22;21906;50.812;7.132;2022-11-24T00:41:37;8.30;77.30
4107;DHT22;21906;50.812;7.132;2022-11-24T00:44:03;8.30;77.30
4107;DHT22;21906;50.812;7.132;2022-11-24T00:46:29;8.20;77.30
4107;DHT22;21906;50.812;7.132;2022-11-24T00:48:54;8.20;77.30
4107;DHT22;21906;50.812;7.132;2022-11-24T00:51:23;8.20;77.40
4107;DHT22;21906;50.812;7.132;2022-11-24T00:53:49;8.20;77.50
4107;DHT22;21906;50.812;7.132;2022-11-24T00:56:15;8.10;77.50
4107;DHT22;21906;50.812;7.132;2022-11-24T00:58:41;8.20;77.60
4107;DHT22;21906;50.812;7.132;2022-11-24T01:01:15;8.10;77.70
4107;DHT22;21906;50.812;7.132;2022-11-24T01:03:41;8.20;78.20
4107;DHT22;21906;50.812;7.132;2022-11-24T01:06:10;8.20;78.10
4107;DHT22;21906;50.812;7.132;2022-11-24T01:08:37;8.20;78.30
4107;DHT22;21906;50.812;7.132;2022-11-24T01:13:40;8.30;78.70
4107;DHT22;21906;50.812;7.132;2022-11-24T01:16:16;8.40;78.80
4107;DHT22;21906;50.812;7.132;2022-11-24T01:18:43;8.40;78.80
4107;DHT22;21906;50.812;7.132;2022-11-24T01:21:09;8.50;78.70
4107;DHT22;21906;50.812;7.132;2022-11-24T01:23:34;8.50;78.70
4107;DHT22;21906;50.812;7.132;2022-11-24T01:26:03;8.50;78.50
4107;DHT22;21906;50.812;7.132;2022-11-24T01:28:30;8.50;78.20
4107;DHT22;21906;50.812;7.132;2022-11-24T01:30:57;8.50;78.20
4107;DHT22;21906;50.812;7.132;2022-11-24T01:33:23;8.50;78.10
4107;DHT22;21906;50.812;7.132;2022-11-24T01:35:48;8.50;78.30
4107;DHT22;21906;50.812;7.132;2022-11-24T01:38:14;8.50;78.40
4107;DHT22;21906;50.812;7.132;2022-11-24T01:40:39;8.50;78.40
4107;DHT22;21906;50.812;7.132;2022-11-24T01:43:18;8.50;78.50
4107;DHT22;21906;50.812;7.132;2022-11-24T01:45:45;8.50;78.50
4107;DHT22;21906;50.812;7.132;2022-11-24T01:48:19;8.40;79.00
4107;DHT22;21906;50.812;7.132;2022-11-24T01:50:52;8.50;79.10
4107;DHT22;21906;50.812;7.132;2022-11-24T01:53:20;8.50;79.70
4107;DHT22;21906;50.812;7.132;2022-11-24T01:55:47;8.50;80.00
4107;DHT22;21906;50.812;7.132;2022-11-24T01:58:23;8.60;79.80
4107;DHT22;21906;50.812;7.132;2022-11-24T02:00:51;8.60;79.90
4107;DHT22;21906;50.812;7.132;2022-11-24T02:03:21;8.60;79.80
4107;DHT22;21906;50.812;7.132;2022-11-24T02:06:05;8.70;79.80
4107;DHT22;21906;50.812;7.132;2022-11-24T02:11:22;8.70;79.70
4107;DHT22;21906;50.812;7.132;2022-11-24T02:13:49;8.70;79.40
4107;DHT22;21906;50.812;7.132;2022-11-24T02:16:16;8.80;79.40
4107;DHT22;21906;50.812;7.132;2022-11-24T02:18:42;8.80;79.30
4107;DHT22;21906;50.812;7.132;2022-11-24T02:21:10;8.80;79.40
4107;DHT22;21906;50.812;7.132;2022-11-24T02:26:44;8.90;79.30
4107;DHT22;21906;50.812;7.132;2022-11-24T02:29:12;8.90;79.10
4107;DHT22;21906;50.812;7.132;2022-11-24T02:31:46;8.90;79.10
4107;DHT22;21906;50.812;7.132;2022-11-24T02:34:13;8.90;79.10
4107;DHT22;21906;50.812;7.132;2022-11-24T02:36:39;9.00;79.20
4107;DHT22;21906;50.812;7.132;2022-11-24T02:39:10;9.00;79.10
4107;DHT22;21906;50.812;7.132;2022-11-24T02:41:36;9.00;79.30
4107;DHT22;21906;50.812;7.132;2022-11-24T02:44:03;9.00;79.30
4107;DHT22;21906;50.812;7.132;2022-11-24T02:46:28;9.00;79.30
4107;DHT22;21906;50.812;7.132;2022-11-24T02:48:54;9.10;79.20
4107;DHT22;21906;50.812;7.132;2022-11-24T02:51:19;9.10;79.10
4107;DHT22;21906;50.812;7.132;2022-11-24T02:53:45;9.20;79.10
4107;DHT22;21906;50.812;7.132;2022-11-24T02:56:11;9.10;79.30
4107;DHT22;21906;50.812;7.132;2022-11-24T02:58:37;9.00;79.40
4107;DHT22;21906;50.812;7.132;2022-11-24T03:01:03;9.00;79.40
4107;DHT22;21906;50.812;7.132;2022-11-24T03:03:29;9.00;79.40
4107;DHT22;21906;50.812;7.132;2022-11-24T03:05:54;9.10;79.40
4107;DHT22;21906;50.812;7.132;2022-11-24T03:08:20;9.10;79.30
4107;DHT22;21906;50.812;7.132;2022-11-24T03:10:46;9.10;79.20
4107;DHT22;21906;50.812;7.132;2022-11-24T03:13:11;9.10;79.10
4107;DHT22;21906;50.812;7.132;2022-11-24T03:15:37;9.10;79.50
4107;DHT22;21906;50.812;7.132;2022-11-24T03:18:04;9.10;79.50
4107;DHT22;21906;50.812;7.132;2022-11-24T03:20:30;9.20;79.50
4107;DHT22;21906;50.812;7.132;2022-11-24T03:22:55;9.20;79.50
4107;DHT22;21906;50.812;7.132;2022-11-24T03:25:21;9.30;79.40
4107;DHT22;21906;50.812;7.132;2022-11-24T03:27:47;9.30;79.30
4107;DHT22;21906;50.812;7.132;2022-11-24T03:30:13;9.30;79.20
4107;DHT22;21906;50.812;7.132;2022-11-24T03:32:39;9.30;79.10
4107;DHT22;21906;50.812;7.132;2022-11-24T03:35:06;9.40;79.10
4107;DHT22;21906;50.812;7.132;2022-11-24T03:37:33;9.40;79.10
4107;DHT22;21906;50.812;7.132;2022-11-24T03:39:58;9.50;79.00
4107;DHT22;21906;50.812;7.132;2022-11-24T03:42:24;9.50;79.10
4107;DHT22;21906;50.812;7.132;2022-11-24T03:44:50;9.50;79.10
4107;DHT22;21906;50.812;7.132;2022-11-24T03:47:15;9.60;79.00
4107;DHT22;21906;50.812;7.132;2022-11-24T03:49:41;9.70;79.00
4107;DHT22;21906;50.812;7.132;2022-11-24T03:52:07;9.70;78.90
4107;DHT22;21906;50.812;7.132;2022-11-24T03:54:33;9.70;78.90
4107;DHT22;21906;50.812;7.132;2022-11-24T03:56:59;9.70;79.00
4107;DHT22;21906;50.812;7.132;2022-11-24T03:59:24;9.70;79.00
4107;DHT22;21906;50.812;7.132;2022-11-24T04:01:50;9.80;78.90
4107;DHT22;21906;50.812;7.132;2022-11-24T04:04:15;9.80;78.80
4107;DHT22;21906;50.812;7.132;2022-11-24T04:06:41;9.80;78.70
4107;DHT22;21906;50.812;7.132;2022-11-24T04:09:07;9.90;78.60
4107;DHT22;21906;50.812;7.132;2022-11-24T04:11:33;9.90;78.50
4107;DHT22;21906;50.812;7.132;2022-11-24T04:14:17;9.90;78.50
4107;DHT22;21906;50.812;7.132;2022-11-24T04:16:44;9.90;78.50
4107;DHT22;21906;50.812;7.132;2022-11-24T04:19:09;9.90;78.50
4107;DHT22;21906;50.812;7.132;2022-11-24T04:21:35;9.90;78.40
4107;DHT22;21906;50.812;7.132;2022-11-24T04:24:01;9.90;78.20
4107;DHT22;21906;50.812;7.132;2022-11-24T04:26:27;9.90;78.20
4107;DHT22;21906;50.812;7.132;2022-11-24T04:28:52;9.90;78.10
4107;DHT22;21906;50.812;7.132;2022-11-24T04:31:18;9.90;78.10
4107;DHT22;21906;50.812;7.132;2022-11-24T04:33:44;9.90;78.00
4107;DHT22;21906;50.812;7.132;2022-11-24T04:36:09;9.90;78.10
4107;DHT22;21906;50.812;7.132;2022-11-24T04:38:35;9.90;78.10
4107;DHT22;21906;50.812;7.132;2022-11-24T04:41:01;9.90;78.10
4107;DHT22;21906;50.812;7.132;2022-11-24T04:43:31;10.00;78.10
4107;DHT22;21906;50.812;7.132;2022-11-24T04:46:00;10.00;78.10
4107;DHT22;21906;50.812;7.132;2022-11-24T04:48:26;10.00;78.00
4107;DHT22;21906;50.812;7.132;2022-11-24T04:50:52;10.00;77.90
4107;DHT22;21906;50.812;7.132;2022-11-24T04:53:18;10.00;77.90
4107;DHT22;21906;50.812;7.132;2022-11-24T04:55:43;10.10;77.80
4107;DHT22;21906;50.812;7.132;2022-11-24T04:58:10;10.10;77.80
4107;DHT22;21906;50.812;7.132;2022-11-24T05:00:36;10.10;77.70
4107;DHT22;21906;50.812;7.132;2022-11-24T05:03:03;10.10;77.60
4107;DHT22;21906;50.812;7.132;2022-11-24T05:05:28;10.10;77.70
4107;DHT22;21906;50.812;7.132;2022-11-24T05:07:54;10.10;77.80
4107;DHT22;21906;50.812;7.132;2022-11-24T05:10:20;10.10;77.80
4107;DHT22;21906;50.812;7.132;2022-11-24T05:13:03;10.10;78.00
4107;DHT22;21906;50.812;7.132;2022-11-24T05:15:29;10.20;78.00
4107;DHT22;21906;50.812;7.132;2022-11-24T05:17:55;10.20;78.00
4107;DHT22;21906;50.812;7.132;2022-11-24T05:20:21;10.20;77.90
4107;DHT22;21906;50.812;7.132;2022-11-24T05:22:47;10.20;77.80
4107;DHT22;21906;50.812;7.132;2022-11-24T05:25:13;10.30;77.70
4107;DHT22;21906;50.812;7.132;2022-11-24T05:27:39;10.30;77.80
4107;DHT22;21906;50.812;7.132;2022-11-24T05:30:05;10.30;77.70
4107;DHT22;21906;50.812;7.132;2022-11-24T05:32:31;10.30;77.70
4107;DHT22;21906;50.812;7.132;2022-11-24T05:34:57;10.20;77.80
4107;DHT22;21906;50.812;7.132;2022-11-24T05:37:27;10.20;77.90
4107;DHT22;21906;50.812;7.132;2022-11-24T05:39:52;10.30;77.80
4107;DHT22;21906;50.812;7.132;2022-11-24T05:42:19;10.30;77.60
4107;DHT22;21906;50.812;7.132;2022-11-24T05:45:03;10.30;77.70
4107;DHT22;21906;50.812;7.132;2022-11-24T05:47:29;10.30;77.60
4107;DHT22;21906;50.812;7.132;2022-11-24T05:49:55;10.40;77.50
4107;DHT22;21906;50.812;7.132;2022-11-24T05:52:20;10.30;77.60
4107;DHT22;21906;50.812;7.132;2022-11-24T05:54:46;10.40;77.60
4107;DHT22;21906;50.812;7.132;2022-11-24T05:57:12;10.40;77.50
4107;DHT22;21906;50.812;7.132;2022-11-24T05:59:37;10.40;77.30
4107;DHT22;21906;50.812;7.132;2022-11-24T06:02:03;10.40;77.40
4107;DHT22;21906;50.812;7.132;2022-11-24T06:04:29;10.50;77.50
4107;DHT22;21906;50.812;7.132;2022-11-24T06:06:55;10.50;77.50
4107;DHT22;21906;50.812;7.132;2022-11-24T06:09:21;10.40;77.90
4107;DHT22;21906;50.812;7.132;2022-11-24T06:11:47;10.50;78.10
4107;DHT22;21906;50.812;7.132;2022-11-24T06:14:12;10.50;78.10
4107;DHT22;21906;50.812;7.132;2022-11-24T06:16:39;10.60;77.90
4107;DHT22;21906;50.812;7.132;2022-11-24T06:19:04;10.60;78.10
4107;DHT22;21906;50.812;7.132;2022-11-24T06:21:31;10.60;78.10
4107;DHT22;21906;50.812;7.132;2022-11-24T06:23:57;10.50;78.00
4107;DHT22;21906;50.812;7.132;2022-11-24T06:26:22;10.50;78.00
4107;DHT22;21906;50.812;7.132;2022-11-24T06:28:48;10.50;78.30
4107;DHT22;21906;50.812;7.132;2022-11-24T06:31:14;10.50;78.30
4107;DHT22;21906;50.812;7.132;2022-11-24T06:33:39;10.50;78.30
4107;DHT22;21906;50.812;7.132;2022-11-24T06:36:08;10.50;78.50
4107;DHT22;21906;50.812;7.132;2022-11-24T06:38:35;10.50;78.60
4107;DHT22;21906;50.812;7.132;2022-11-24T06:41:05;10.50;78.70
4107;DHT22;21906;50.812;7.132;2022-11-24T06:43:32;10.50;78.70
4107;DHT22;21906;50.812;7.132;2022-11-24T06:45:58;10.60;78.70
4107;DHT22;21906;50.812;7.132;2022-11-24T06:48:25;10.60;78.70
4107;DHT22;21906;50.812;7.132;2022-11-24T06:50:51;10.50;78.60
4107;DHT22;21906;50.812;7.132;2022-11-24T06:53:17;10.50;78.80
4107;DHT22;21906;50.812;7.132;2022-11-24T06:55:44;10.50;78.80
4107;DHT22;21906;50.812;7.132;2022-11-24T06:58:10;10.50;79.10
4107;DHT22;21906;50.812;7.132;2022-11-24T07:00:37;10.50;78.90
4107;DHT22;21906;50.812;7.132;2022-11-24T07:03:04;10.50;78.80
4107;DHT22;21906;50.812;7.132;2022-11-24T07:05:30;10.50;78.90
4107;DHT22;21906;50.812;7.132;2022-11-24T07:07:58;10.50;79.00
4107;DHT22;21906;50.812;7.132;2022-11-24T07:10:24;10.50;79.00
4107;DHT22;21906;50.812;7.132;2022-11-24T07:12:50;10.50;78.90
4107;DHT22;21906;50.812;7.132;2022-11-24T07:15:16;10.50;78.90
4107;DHT22;21906;50.812;7.132;2022-11-24T07:17:41;10.50;78.90
4107;DHT22;21906;50.812;7.132;2022-11-24T07:20:08;10.50;78.70
4107;DHT22;21906;50.812;7.132;2022-11-24T07:22:34;10.60;78.30
4107;DHT22;21906;50.812;7.132;2022-11-24T07:24:59;10.60;78.40
4107;DHT22;21906;50.812;7.132;2022-11-24T07:27:28;10.60;78.20
4107;DHT22;21906;50.812;7.132;2022-11-24T07:29:54;10.50;78.30
4107;DHT22;21906;50.812;7.132;2022-11-24T07:32:20;10.50;78.20
4107;DHT22;21906;50.812;7.132;2022-11-24T07:34:46;10.40;78.40
4107;DHT22;21906;50.812;7.132;2022-11-24T07:37:12;10.50;77.90
4107;DHT22;21906;50.812;7.132;2022-11-24T07:39:39;10.40;77.80
4107;DHT22;21906;50.812;7.132;2022-11-24T07:42:04;10.40;77.90
4107;DHT22;21906;50.812;7.132;2022-11-24T07:44:31;10.40;77.80
4107;DHT22;21906;50.812;7.132;2022-11-24T07:46:56;10.40;77.80
4107;DHT22;21906;50.812;7.132;2022-11-24T07:49:22;10.40;77.80
4107;DHT22;21906;50.812;7.132;2022-11-24T07:51:48;10.40;77.80
4107;DHT22;21906;50.812;7.132;2022-11-24T07:54:13;10.40;77.40
4107;DHT22;21906;50.812;7.132;2022-11-24T07:56:39;10.40;77.30
4107;DHT22;21906;50.812;7.132;2022-11-24T07:59:04;10.40;77.20
4107;DHT22;21906;50.812;7.132;2022-11-24T08:01:30;10.40;77.10
4107;DHT22;21906;50.812;7.132;2022-11-24T08:03:56;10.40;77.10
4107;DHT22;21906;50.812;7.132;2022-11-24T08:06:22;10.40;77.20
4107;DHT22;21906;50.812;7.132;2022-11-24T08:08:48;10.40;77.30
4107;DHT22;21906;50.812;7.132;2022-11-24T08:11:16;10.40;77.30
4107;DHT22;21906;50.812;7.132;2022-11-24T08:13:42;10.40;77.40
4107;DHT22;21906;50.812;7.132;2022-11-24T08:16:13;10.40;77.40
4107;DHT22;21906;50.812;7.132;2022-11-24T08:18:40;10.50;77.20
4107;DHT22;21906;50.812;7.132;2022-11-24T08:21:06;10.50;76.90
4107;DHT22;21906;50.812;7.132;2022-11-24T08:23:32;10.50;76.80
4107;DHT22;21906;50.812;7.132;2022-11-24T08:26:02;10.60;76.40
4107;DHT22;21906;50.812;7.132;2022-11-24T08:28:30;10.70;76.30
4107;DHT22;21906;50.812;7.132;2022-11-24T08:31:03;10.70;76.20
4107;DHT22;21906;50.812;7.132;2022-11-24T08:33:29;10.70;76.30
4107;DHT22;21906;50.812;7.132;2022-11-24T08:35:55;10.70;76.30
4107;DHT22;21906;50.812;7.132;2022-11-24T08:38:21;10.80;76.30
4107;DHT22;21906;50.812;7.132;2022-11-24T08:40:46;10.80;76.30
4107;DHT22;21906;50.812;7.132;2022-11-24T08:43:12;10.90;76.10
4107;DHT22;21906;50.812;7.132;2022-11-24T08:45:38;10.90;75.90
4107;DHT22;21906;50.812;7.132;2022-11-24T08:48:04;10.90;75.60
4107;DHT22;21906;50.812;7.132;2022-11-24T08:50:29;11.00;75.40
4107;DHT22;21906;50.812;7.132;2022-11-24T08:52:55;11.00;75.30
4107;DHT22;21906;50.812;7.132;2022-11-24T08:55:21;11.20;75.10
4107;DHT22;21906;50.812;7.132;2022-11-24T08:57:46;11.20;74.90
4107;DHT22;21906;50.812;7.132;2022-11-24T09:00:12;11.20;74.70
4107;DHT22;21906;50.812;7.132;2022-11-24T09:02:38;11.30;74.60
4107;DHT22;21906;50.812;7.132;2022-11-24T09:05:04;11.30;74.20
4107;DHT22;21906;50.812;7.132;2022-11-24T09:07:30;11.20;73.80
4107;DHT22;21906;50.812;7.132;2022-11-24T09:09:55;11.30;73.50
4107;DHT22;21906;50.812;7.132;2022-11-24T09:12:21;11.40;73.60
4107;DHT22;21906;50.812;7.132;2022-11-24T09:14:47;11.40;73.70
4107;DHT22;21906;50.812;7.132;2022-11-24T09:17:12;11.40;72.90
4107;DHT22;21906;50.812;7.132;2022-11-24T09:19:38;11.40;72.80
4107;DHT22;21906;50.812;7.132;2022-11-24T09:22:03;11.40;72.80
4107;DHT22;21906;50.812;7.132;2022-11-24T09:24:29;11.40;72.90
4107;DHT22;21906;50.812;7.132;2022-11-24T09:26:55;11.50;72.60
4107;DHT22;21906;50.812;7.132;2022-11-24T09:29:21;11.50;72.80
4107;DHT22;21906;50.812;7.132;2022-11-24T09:31:47;11.60;72.30
4107;DHT22;21906;50.812;7.132;2022-11-24T09:34:13;11.50;72.30
4107;DHT22;21906;50.812;7.132;2022-11-24T09:36:40;11.60;72.00
4107;DHT22;21906;50.812;7.132;2022-11-24T09:39:06;11.60;71.60
4107;DHT22;21906;50.812;7.132;2022-11-24T09:44:54;11.70;71.00
4107;DHT22;21906;50.812;7.132;2022-11-24T09:50:19;11.60;70.90
4107;DHT22;21906;50.812;7.132;2022-11-24T09:55:47;11.40;72.10
4107;DHT22;21906;50.812;7.132;2022-11-24T10:01:13;11.50;72.10
4107;DHT22;21906;50.812;7.132;2022-11-24T10:03:48;11.60;71.70
4107;DHT22;21906;50.812;7.132;2022-11-24T10:06:28;11.60;72.00
4107;DHT22;21906;50.812;7.132;2022-11-24T10:09:23;11.70;71.70
4107;DHT22;21906;50.812;7.132;2022-11-24T10:23:06;11.90;70.20
4107;DHT22;21906;50.812;7.132;2022-11-24T10:25:50;11.90;70.50
4107;DHT22;21906;50.812;7.132;2022-11-24T10:28:17;12.20;69.40
4107;DHT22;21906;50.812;7.132;2022-11-24T10:30:43;12.20;70.10
4107;DHT22;21906;50.812;7.132;2022-11-24T10:33:17;12.40;68.50
4107;DHT22;21906;50.812;7.132;2022-11-24T10:41:20;12.40;68.10
4107;DHT22;21906;50.812;7.132;2022-11-24T10:43:41;12.60;66.50
4107;DHT22;21906;50.812;7.132;2022-11-24T10:46:25;12.60;67.30
4107;DHT22;21906;50.812;7.132;2022-11-24T10:48:59;12.60;66.90
4107;DHT22;21906;50.812;7.132;2022-11-24T10:54:24;12.50;65.90
4107;DHT22;21906;50.812;7.132;2022-11-24T10:56:51;12.50;66.10
4107;DHT22;21906;50.812;7.132;2022-11-24T11:01:50;12.60;65.70
4107;DHT22;21906;50.812;7.132;2022-11-24T11:04:44;12.80;65.80
4107;DHT22;21906;50.812;7.132;2022-11-24T11:07:21;12.90;66.40
4107;DHT22;21906;50.812;7.132;2022-11-24T11:10:20;13.00;65.40
4107;DHT22;21906;50.812;7.132;2022-11-24T11:12:48;13.20;64.60
4107;DHT22;21906;50.812;7.132;2022-11-24T11:15:29;13.40;62.90
4107;DHT22;21906;50.812;7.132;2022-11-24T11:17:59;13.40;62.50
4107;DHT22;21906;50.812;7.132;2022-11-24T11:20:31;13.40;63.20
4107;DHT22;21906;50.812;7.132;2022-11-24T11:23:00;13.40;62.90
4107;DHT22;21906;50.812;7.132;2022-11-24T11:25:36;13.50;63.30
4107;DHT22;21906;50.812;7.132;2022-11-24T11:28:24;13.50;62.30
4107;DHT22;21906;50.812;7.132;2022-11-24T11:33:29;13.50;62.10
4107;DHT22;21906;50.812;7.132;2022-11-24T11:35:56;13.70;62.30
4107;DHT22;21906;50.812;7.132;2022-11-24T11:38:31;13.90;61.10
4107;DHT22;21906;50.812;7.132;2022-11-24T11:40:59;13.80;61.30
4107;DHT22;21906;50.812;7.132;2022-11-24T11:43:28;13.70;60.70
4107;DHT22;21906;50.812;7.132;2022-11-24T11:46:08;13.80;61.40
4107;DHT22;21906;50.812;7.132;2022-11-24T11:48:35;13.80;61.00
4107;DHT22;21906;50.812;7.132;2022-11-24T11:54:26;13.90;60.70
4107;DHT22;21906;50.812;7.132;2022-11-24T11:57:15;14.10;60.90
4107;DHT22;21906;50.812;7.132;2022-11-24T12:05:42;14.30;59.00
4107;DHT22;21906;50.812;7.132;2022-11-24T12:17:05;14.60;58.70
4107;DHT22;21906;50.812;7.132;2022-11-24T12:25:04;15.10;56.60
4107;DHT22;21906;50.812;7.132;2022-11-24T12:30:15;15.20;56.00
4107;DHT22;21906;50.812;7.132;2022-11-24T12:35:51;15.20;55.80
4107;DHT22;21906;50.812;7.132;2022-11-24T12:48:17;15.60;54.60
4107;DHT22;21906;50.812;7.132;2022-11-24T12:50:45;15.70;54.30
4107;DHT22;21906;50.812;7.132;2022-11-24T12:53:29;15.70;55.10
4107;DHT22;21906;50.812;7.132;2022-11-24T12:56:06;15.80;54.90
4107;DHT22;21906;50.812;7.132;2022-11-24T13:09:10;16.00;54.90
4107;DHT22;21906;50.812;7.132;2022-11-24T13:11:40;16.20;55.00
4107;DHT22;21906;50.812;7.132;2022-11-24T13:14:31;16.40;53.30
4107;DHT22;21906;50.812;7.132;2022-11-24T13:17:02;16.60;52.10
4107;DHT22;21906;50.812;7.132;2022-11-24T13:19:46;16.60;51.90
4107;DHT22;21906;50.812;7.132;2022-11-24T13:22:16;16.70;51.20
4107;DHT22;21906;50.812;7.132;2022-11-24T13:24:42;16.60;51.60
4107;DHT22;21906;50.812;7.132;2022-11-24T13:29:48;16.50;51.40
4107;DHT22;21906;50.812;7.132;2022-11-24T13:45:53;16.40;51.20
4107;DHT22;21906;50.812;7.132;2022-11-24T13:56:21;15.70;52.10
4107;DHT22;21906;50.812;7.132;2022-11-24T13:58:59;15.50;53.20
4107;DHT22;21906;50.812;7.132;2022-11-24T14:01:31;15.40;53.50
4107;DHT22;21906;50.812;7.132;2022-11-24T14:06:29;15.20;53.10
4107;DHT22;21906;50.812;7.132;2022-11-24T14:08:57;15.10;53.10
4107;DHT22;21906;50.812;7.132;2022-11-24T14:11:23;14.90;53.20
4107;DHT22;21906;50.812;7.132;2022-11-24T14:13:52;14.90;54.00
4107;DHT22;21906;50.812;7.132;2022-11-24T14:16:19;14.80;54.80
4107;DHT22;21906;50.812;7.132;2022-11-24T14:18:47;14.80;55.40
4107;DHT22;21906;50.812;7.132;2022-11-24T14:26:39;14.50;55.20
4107;DHT22;21906;50.812;7.132;2022-11-24T14:29:16;14.40;55.50
4107;DHT22;21906;50.812;7.132;2022-11-24T14:31:55;14.40;55.80
4107;DHT22;21906;50.812;7.132;2022-11-24T14:34:23;14.40;55.90
4107;DHT22;21906;50.812;7.132;2022-11-24T14:36:50;14.30;56.10
4107;DHT22;21906;50.812;7.132;2022-11-24T14:39:18;14.20;55.90
4107;DHT22;21906;50.812;7.132;2022-11-24T14:42:02;14.10;56.30
4107;DHT22;21906;50.812;7.132;2022-11-24T14:49:43;14.10;57.50
4107;DHT22;21906;50.812;7.132;2022-11-24T14:52:14;14.10;57.70
4107;DHT22;21906;50.812;7.132;2022-11-24T14:54:57;14.10;57.10
4107;DHT22;21906;50.812;7.132;2022-11-24T15:00:12;14.00;57.40
4107;DHT22;21906;50.812;7.132;2022-11-24T15:02:41;13.90;57.80
4107;DHT22;21906;50.812;7.132;2022-11-24T15:05:09;13.90;57.80
4107;DHT22;21906;50.812;7.132;2022-11-24T15:07:36;13.90;57.60
4107;DHT22;21906;50.812;7.132;2022-11-24T15:10:15;13.90;57.70
4107;DHT22;21906;50.812;7.132;2022-11-24T15:12:44;13.80;58.00
4107;DHT22;21906;50.812;7.132;2022-11-24T15:18:05;13.70;58.50
4107;DHT22;21906;50.812;7.132;2022-11-24T15:20:31;13.60;58.70
4107;DHT22;21906;50.812;7.132;2022-11-24T15:23:28;13.60;58.80
4107;DHT22;21906;50.812;7.132;2022-11-24T15:28:27;13.40;59.40
4107;DHT22;21906;50.812;7.132;2022-11-24T15:30:55;13.30;59.80
4107;DHT22;21906;50.812;7.132;2022-11-24T15:33:23;13.20;59.90
4107;DHT22;21906;50.812;7.132;2022-11-24T15:35:49;13.20;60.10
4107;DHT22;21906;50.812;7.132;2022-11-24T15:38:15;13.00;60.30
4107;DHT22;21906;50.812;7.132;2022-11-24T15:40:43;13.00;60.30
4107;DHT22;21906;50.812;7.132;2022-11-24T15:45:56;12.90;60.80
4107;DHT22;21906;50.812;7.132;2022-11-24T15:48:22;12.90;61.00
4107;DHT22;21906;50.812;7.132;2022-11-24T15:50:48;12.70;61.30
4107;DHT22;21906;50.812;7.132;2022-11-24T15:53:23;12.70;61.60
4107;DHT22;21906;50.812;7.132;2022-11-24T15:55:51;12.60;61.60
4107;DHT22;21906;50.812;7.132;2022-11-24T15:58:17;12.60;61.60
4107;DHT22;21906;50.812;7.132;2022-11-24T16:00:43;12.50;61.80
4107;DHT22;21906;50.812;7.132;2022-11-24T16:03:09;12.50;62.00
4107;DHT22;21906;50.812;7.132;2022-11-24T16:05:38;12.40;62.20
4107;DHT22;21906;50.812;7.132;2022-11-24T16:08:07;12.40;62.40
4107;DHT22;21906;50.812;7.132;2022-11-24T16:10:36;12.40;62.50
4107;DHT22;21906;50.812;7.132;2022-11-24T16:13:01;12.30;62.70
4107;DHT22;21906;50.812;7.132;2022-11-24T16:15:27;12.30;62.90
4107;DHT22;21906;50.812;7.132;2022-11-24T16:17:53;12.20;63.20
4107;DHT22;21906;50.812;7.132;2022-11-24T16:20:19;12.20;63.50
4107;DHT22;21906;50.812;7.132;2022-11-24T16:22:44;12.10;63.60
4107;DHT22;21906;50.812;7.132;2022-11-24T16:25:11;12.00;63.80
4107;DHT22;21906;50.812;7.132;2022-11-24T16:27:37;12.00;64.10
4107;DHT22;21906;50.812;7.132;2022-11-24T16:30:04;11.90;64.40
4107;DHT22;21906;50.812;7.132;2022-11-24T16:32:30;11.90;64.40
4107;DHT22;21906;50.812;7.132;2022-11-24T16:34:55;11.90;64.60
4107;DHT22;21906;50.812;7.132;2022-11-24T16:37:21;11.90;64.60
4107;DHT22;21906;50.812;7.132;2022-11-24T16:39:47;11.80;64.60
4107;DHT22;21906;50.812;7.132;2022-11-24T16:42:13;11.80;64.70
4107;DHT22;21906;50.812;7.132;2022-11-24T16:44:39;11.70;64.60
4107;DHT22;21906;50.812;7.132;2022-11-24T16:47:05;11.70;64.70
4107;DHT22;21906;50.812;7.132;2022-11-24T16:49:30;11.70;64.60
4107;DHT22;21906;50.812;7.132;2022-11-24T16:51:56;11.70;64.60
4107;DHT22;21906;50.812;7.132;2022-11-24T16:54:22;11.70;64.80
4107;DHT22;21906;50.812;7.132;2022-11-24T16:56:47;11.60;64.50
4107;DHT22;21906;50.812;7.132;2022-11-24T16:59:13;11.60;64.70
4107;DHT22;21906;50.812;7.132;2022-11-24T17:01:39;11.60;64.50
4107;DHT22;21906;50.812;7.132;2022-11-24T17:04:05;11.60;64.50
4107;DHT22;21906;50.812;7.132;2022-11-24T17:06:32;11.60;64.60
4107;DHT22;21906;50.812;7.132;2022-11-24T17:08:58;11.50;64.70
4107;DHT22;21906;50.812;7.132;2022-11-24T17:11:26;11.50;65.00
4107;DHT22;21906;50.812;7.132;2022-11-24T17:13:52;11.50;65.00
4107;DHT22;21906;50.812;7.132;2022-11-24T17:16:22;11.40;65.10
4107;DHT22;21906;50.812;7.132;2022-11-24T17:18:48;11.40;65.10
4107;DHT22;21906;50.812;7.132;2022-11-24T17:21:19;11.40;65.20
4107;DHT22;21906;50.812;7.132;2022-11-24T17:23:45;11.40;65.30
4107;DHT22;21906;50.812;7.132;2022-11-24T17:26:13;11.40;65.30
4107;DHT22;21906;50.812;7.132;2022-11-24T17:28:39;11.40;65.10
4107;DHT22;21906;50.812;7.132;2022-11-24T17:31:16;11.40;65.20
4107;DHT22;21906;50.812;7.132;2022-11-24T17:33:44;11.40;65.20
4107;DHT22;21906;50.812;7.132;2022-11-24T17:36:10;11.40;65.30
4107;DHT22;21906;50.812;7.132;2022-11-24T17:38:35;11.40;65.20
4107;DHT22;21906;50.812;7.132;2022-11-24T17:41:01;11.30;65.30
4107;DHT22;21906;50.812;7.132;2022-11-24T17:43:27;11.30;65.40
4107;DHT22;21906;50.812;7.132;2022-11-24T17:45:54;11.30;65.30
4107;DHT22;21906;50.812;7.132;2022-11-24T17:48:21;11.20;65.50
4107;DHT22;21906;50.812;7.132;2022-11-24T17:50:46;11.20;65.70
4107;DHT22;21906;50.812;7.132;2022-11-24T17:53:12;11.20;65.90
4107;DHT22;21906;50.812;7.132;2022-11-24T17:55:38;11.10;66.00
4107;DHT22;21906;50.812;7.132;2022-11-24T17:58:05;11.10;66.20
4107;DHT22;21906;50.812;7.132;2022-11-24T18:00:31;11.10;66.20
4107;DHT22;21906;50.812;7.132;2022-11-24T18:02:56;11.00;66.40
4107;DHT22;21906;50.812;7.132;2022-11-24T18:05:22;11.00;66.40
4107;DHT22;21906;50.812;7.132;2022-11-24T18:07:48;10.90;66.60
4107;DHT22;21906;50.812;7.132;2022-11-24T18:10:14;10.90;66.60
4107;DHT22;21906;50.812;7.132;2022-11-24T18:12:39;10.90;66.80
4107;DHT22;21906;50.812;7.132;2022-11-24T18:15:05;10.90;66.90
4107;DHT22;21906;50.812;7.132;2022-11-24T18:17:31;10.90;66.90
4107;DHT22;21906;50.812;7.132;2022-11-24T18:19:57;10.90;66.90